KGCK/GCK METAR and TAF weather

Enter ICAO airport designator
Station Type Date Time Source
KGCK METAR 2020/12/01 20:54 UTC NOAA

KGCK 012054Z 01026G33KT 10SM CLR 12/M12 A2988 RMK AO2 PK WND 01033/2049 SLP128 T01171117 55008


Station Type Date Time Source
KGCK Decoded METAR 2020/12/01 20:54 UTC NOAA

GARDEN CITY REGIONAL AIRPORT, KS, United States (KGCK) 37-55N 100-43W 877M
Dec 01, 2020 - 03:54 PM EST / 2020.12.01 2054 UTC
Wind: from the N (010 degrees) at 30 MPH (26 KT) gusting to 38 MPH (33 KT):0
Visibility: 10 mile(s):0
Sky conditions: clear
Temperature: 53.1 F (11.7 C)
Dew Point: 10.9 F (-11.7 C)
Relative Humidity: 18%
Pressure (altimeter): 29.88 in. Hg (1011 hPa)
Pressure tendency: 0.02 inches (0.8 hPa) lower than three hours ago
ob: KGCK 012054Z 01026G33KT 10SM CLR 12/M12 A2988 RMK AO2 PK WND 01033/2049 SLP128 T01171117 55008
cycle: 21

Station Type Date Time Source
KGCK TAF 2020/12/01 18:22 UTC NOAA

TAF KGCK 011720Z 0118/0218 35010KT P6SM SCT250
FM011900 01015G25KT P6SM BKN200
FM020500 01020G30KT P6SM OVC080
FM020900 36020G30KT P6SM OVC030
FM021100 36020G30KT P6SM VCSH OVC015

Example: see airport list